Maersk Iowa — KABL — position and weather

sailwx.info

Track history (hours):
 
Tides and Currents Weather Stations Pressure Air Temp Water Temp Dewpoint Dewpoint Depression Visibility Wind Speed Wind Dir Waves Ship Positions

Maersk Iowa

Owner: Maersk Line, Limited, Norfolk, VA. More information available from US FCC via Universal Licensing System and Coast Guard Vessel Documentation Center.

Last reported at 2017-Dec-16 01:00 UTC. Time now 2017-Dec-16 01:18 UTC.
Position N 50°02' W 002°31'.

Length 292 m; draft 11.8 m.

Type: Ship (hazmat cat A). MMSI: 367606000.

Date/timePositionNaut miles runAvg speedWind from/ knotsBaromVisibWave heightAir tempDewpointWater temp
2017-Dec-16 01:00N 50°02' W 002°31'8819.8
2017-Dec-15 20:35N 50°26' W 000°20'517.4
2017-Dec-15 20:17N 50°27' W 000°12'517.1
2017-Dec-15 20:01N 50°28' W 000°04'916.9
2017-Dec-15 19:28N 50°30' E 000°09'816.8
2017-Dec-15 19:01N 50°33' E 000°21'917.0
2017-Dec-15 18:31N 50°35' E 000°34'917.7
2017-Dec-15 18:01N 50°40' E 000°45'918.8
2017-Dec-15 17:31N 50°46' E 000°56'1520.0
2017-Dec-15 16:46N 50°57' E 001°13'620.6
2017-Dec-15 16:27N 51°01' E 001°21'920.3
2017-Dec-15 16:01N 51°06' E 001°33'1019.9
2017-Dec-15 15:30N 51°12' E 001°45'918.7
2017-Dec-15 15:01N 51°20' E 001°53'815.5
2017-Dec-15 14:31N 51°27' E 001°58'815.0
2017-Dec-15 14:01N 51°32' E 002°07'816.5
2017-Dec-15 13:30N 51°39' E 002°15'917.8
2017-Dec-15 13:00N 51°46' E 002°24'917.6
2017-Dec-15 12:29N 51°53' E 002°33'817.5
2017-Dec-15 12:00N 51°59' E 002°42'917.6
2017-Dec-15 11:30N 52°06' E 002°52'917.8
2017-Dec-15 10:59N 52°13' E 003°01'918.2
2017-Dec-15 10:29N 52°21' E 003°10'918.7
2017-Dec-15 10:01N 52°28' E 003°19'917.5
2017-Dec-15 09:30N 52°35' E 003°27'1019.5
2017-Dec-15 09:00N 52°42' E 003°38'1020.2
2017-Dec-15 08:30N 52°50' E 003°49'1020.3
2017-Dec-15 08:01N 52°57' E 004°00'1020.2
2017-Dec-15 07:30N 53°04' E 004°13'1019.7
2017-Dec-15 07:00N 53°11' E 004°25'1019.5
2017-Dec-15 06:29N 53°20' E 004°32'918.2
2017-Dec-15 06:00N 53°27' E 004°40'918.5
2017-Dec-15 05:31N 53°32' E 004°53'918.2
2017-Dec-15 05:00N 53°36' E 005°07'918.0
2017-Dec-15 04:29N 53°40' E 005°22'11311.3
2017-Dec-14 18:28N 53°35' E 008°32'0 0.0
2017-Dec-14 17:58N 53°35' E 008°32'0 0.0
2017-Dec-14 17:28N 53°35' E 008°32'0 0.0
2017-Dec-14 16:58N 53°35' E 008°32'0 0.0
2017-Dec-14 16:28N 53°35' E 008°32'0 0.0
2017-Dec-14 15:58N 53°35' E 008°32'0 0.0
2017-Dec-14 14:58N 53°35' E 008°32'0 0.0
2017-Dec-14 14:28N 53°35' E 008°32'0 0.0
2017-Dec-14 13:58N 53°35' E 008°32'0 0.0
2017-Dec-14 13:28N 53°35' E 008°32'0 0.0
2017-Dec-14 12:58N 53°35' E 008°32'0 0.0
2017-Dec-14 12:28N 53°35' E 008°32'0 0.0
2017-Dec-14 11:58N 53°35' E 008°32'0 0.0
2017-Dec-14 11:28N 53°35' E 008°32'0 0.0
2017-Dec-14 10:58N 53°35' E 008°32'0 0.0
2017-Dec-14 10:28N 53°35' E 008°32'0 0.0
2017-Dec-14 09:58N 53°35' E 008°32'0 0.0
2017-Dec-14 09:28N 53°35' E 008°32'0 0.0
2017-Dec-14 08:58N 53°35' E 008°32'0 0.0
2017-Dec-14 08:28N 53°35' E 008°32'0 0.0
2017-Dec-14 07:58N 53°35' E 008°32'0 0.0
2017-Dec-14 07:28N 53°35' E 008°32'0 0.0
2017-Dec-14 06:58N 53°35' E 008°32'0 0.0
2017-Dec-14 06:28N 53°35' E 008°32'0 0.0
2017-Dec-14 05:58N 53°35' E 008°32'0 0.0
2017-Dec-14 05:28N 53°35' E 008°32'0 0.0
2017-Dec-14 04:58N 53°35' E 008°32'0 0.0
2017-Dec-14 04:28N 53°35' E 008°32'0 0.0
2017-Dec-14 03:58N 53°35' E 008°32'0 0.0
2017-Dec-14 03:28N 53°35' E 008°32'0 0.0
2017-Dec-14 02:58N 53°35' E 008°32'0 0.0
2017-Dec-14 02:28N 53°35' E 008°32'0 0.0
2017-Dec-14 01:58N 53°35' E 008°32'0 0.0
2017-Dec-14 01:28N 53°35' E 008°32'0 0.0
2017-Dec-14 00:58N 53°35' E 008°32'0 0.0
2017-Dec-14 00:28N 53°35' E 008°32'2 3.5
2017-Dec-14 00:00N 53°36' E 008°30'5 9.2
2017-Dec-13 23:30N 53°39' E 008°24'611.2
2017-Dec-13 23:00N 53°43' E 008°18'713.1
2017-Dec-13 22:30N 53°47' E 008°09'611.0
2017-Dec-13 22:00N 53°51' E 008°02'4 8.4
2017-Dec-13 21:30N 53°52' E 007°55'99 8.4
2017-Dec-13 09:39N 53°32' E 005°11'2 8.0
2017-Dec-13 09:25N 53°32' E 005°08'3 8.1
2017-Dec-13 09:01N 53°30' E 005°03'4 8.1
2017-Dec-13 08:31N 53°28' E 004°57'4 8.5
2017-Dec-13 08:00N 53°26' E 004°51'5 8.6
2017-Dec-13 07:27N 53°24' E 004°44'4 9.2
2017-Dec-13 07:00N 53°21' E 004°40'16 9.5
2017-Dec-13 05:20N 53°07' E 004°27'3 9.5
2017-Dec-13 05:00N 53°04' E 004°25'5 9.5
2017-Dec-13 04:30N 52°60' E 004°21'5 9.5
2017-Dec-13 04:00N 52°56' E 004°17'5 9.4
2017-Dec-13 03:30N 52°51' E 004°14'5 9.6
2017-Dec-13 03:00N 52°47' E 004°10'5 9.8
2017-Dec-13 02:31N 52°43' E 004°05'5 9.9
2017-Dec-13 02:00N 52°39' E 004°01'611.4
2017-Dec-13 01:30N 52°34' E 003°57'612.4
2017-Dec-13 01:00N 52°28' E 003°53'5 9.5
2017-Dec-13 00:30N 52°23' E 003°52'5 9.2
2017-Dec-13 00:00N 52°19' E 003°52'4 9.0
2017-Dec-12 23:30N 52°14' E 003°54'5 9.1
2017-Dec-12 23:00N 52°10' E 003°54'5 9.4
2017-Dec-12 22:30N 52°05' E 003°54'5 9.1
2017-Dec-12 22:00N 52°01' E 003°58'510.8
2017-Dec-12 21:30N 51°58' E 004°05'3 6.0
2017-Dec-12 21:01N 51°58' E 003°60'1 1.8
2017-Dec-12 20:30N 51°57' E 004°00'0 0.0
2017-Dec-12 20:00N 51°57' E 004°00'0 0.0
2017-Dec-12 19:30N 51°57' E 004°00'0 0.0
2017-Dec-12 19:00N 51°57' E 004°00'0 0.0
2017-Dec-12 18:30N 51°57' E 004°00'0 0.0
2017-Dec-12 18:00N 51°57' E 004°00'0 0.0
2017-Dec-12 17:30N 51°57' E 004°00'0 0.0
2017-Dec-12 17:00N 51°57' E 004°00'0 0.0
2017-Dec-12 16:30N 51°57' E 004°00'0 0.0
2017-Dec-12 16:00N 51°57' E 004°00'0 0.0
2017-Dec-12 15:30N 51°57' E 004°00'0 0.0
2017-Dec-12 15:00N 51°57' E 004°00'0 0.0
2017-Dec-12 14:30N 51°57' E 004°00'0 0.0
2017-Dec-12 14:00N 51°57' E 004°00'0 0.0
2017-Dec-12 13:30N 51°57' E 004°00'0 0.0
2017-Dec-12 13:00N 51°57' E 004°00'0 0.0
2017-Dec-12 12:30N 51°57' E 004°00'0 0.0
2017-Dec-12 12:00N 51°57' E 004°00'0 0.0
2017-Dec-12 11:30N 51°57' E 004°00'0 0.0
2017-Dec-12 10:57N 51°57' E 004°00'0 0.0
2017-Dec-12 10:30N 51°57' E 004°00'0 0.0
2017-Dec-12 10:00N 51°57' E 004°00'0 0.0
2017-Dec-12 09:27N 51°57' E 004°00'0 0.0
2017-Dec-12 08:57N 51°57' E 004°00'0 0.0
2017-Dec-12 08:30N 51°57' E 004°00'0 0.0
2017-Dec-12 08:00N 51°57' E 004°00'0 0.0
2017-Dec-12 07:30N 51°57' E 004°00'0 0.0
2017-Dec-12 07:00N 51°57' E 004°00'0 0.0
2017-Dec-12 06:30N 51°57' E 004°00'0 0.0
2017-Dec-12 06:00N 51°57' E 004°00'0 0.0
2017-Dec-12 05:30N 51°57' E 004°00'0 0.0
2017-Dec-12 05:00N 51°57' E 004°00'0 0.0
2017-Dec-12 04:27N 51°57' E 004°00'0 0.0
2017-Dec-12 04:00N 51°57' E 004°00'0 0.0
2017-Dec-12 03:30N 51°57' E 004°00'0 0.0
2017-Dec-12 03:00N 51°57' E 004°00'0 0.0
2017-Dec-12 02:30N 51°57' E 004°00'1 2.0
2017-Dec-12 02:00N 51°58' E 004°00'3 5.4
2017-Dec-12 01:30N 51°58' E 004°04'2 4.2
2017-Dec-12 01:00N 51°59' E 004°02'510.2
2017-Dec-12 00:30N 51°59' E 003°54'2 4.9
2017-Dec-12 00:00N 51°60' E 003°50'4 7.8
2017-Dec-11 23:31N 51°59' E 003°44'510.5
2017-Dec-11 23:00N 51°57' E 003°36'5 6.4
2017-Dec-11 22:14N 51°55' E 003°29'0 0.1
2017-Dec-11 19:10N 51°54' E 003°29'0 0.0
2017-Dec-11 18:40N 51°54' E 003°29'0 0.1
2017-Dec-11 18:25N 51°54' E 003°29'0 0.1
2017-Dec-11 17:58N 51°54' E 003°29'0 0.0
2017-Dec-11 17:25N 51°54' E 003°29'0 0.0
2017-Dec-11 16:55N 51°54' E 003°29'0 0.0
2017-Dec-11 16:25N 51°54' E 003°29'0 0.1
2017-Dec-11 15:58N 51°54' E 003°29'0 0.0
2017-Dec-11 15:28N 51°54' E 003°29'0 0.0
2017-Dec-11 14:55N 51°54' E 003°29'0 0.1
2017-Dec-11 14:28N 51°54' E 003°29'0 0.8
2017-Dec-11 14:00N 51°54' E 003°28'9 8.3
2017-Dec-11 12:58N 51°49' E 003°17'1711.2
2017-Dec-11 11:26N 51°33' E 003°08'714.1
2017-Dec-11 10:57N 51°28' E 003°00'511.1
2017-Dec-11 10:30N 51°24' E 003°05'917.3
2017-Dec-11 10:01N 51°24' E 003°19'917.3
2017-Dec-11 09:30N 51°26' E 003°33'510.5
2017-Dec-11 09:01N 51°26' E 003°41'713.8
2017-Dec-11 08:31N 51°21' E 003°49'612.8
2017-Dec-11 08:00N 51°24' E 003°57'2112.3
2017-Dec-11 08:00N 51°24' E 004°00'2 3.3 170 / 15980.6 5.4 3.0 0.3 7.0
2017-Dec-11 07:30N 51°23' E 004°02'611.2
2017-Dec-11 07:00N 51°24' E 004°11'5 9.8
2017-Dec-11 06:31N 51°20' E 004°16'3 6.1
2017-Dec-11 06:00N 51°17' E 004°15'0 0.3
2017-Dec-11 05:31N 51°17' E 004°15'0 0.0
2017-Dec-11 04:59N 51°17' E 004°15'0 0.0
2017-Dec-11 04:29N 51°17' E 004°15'0 0.0
2017-Dec-11 03:59N 51°17' E 004°15'0 0.0
2017-Dec-11 03:29N 51°17' E 004°15'0 0.0
2017-Dec-11 02:59N 51°17' E 004°15'0 0.0
2017-Dec-11 02:29N 51°17' E 004°15'0 0.0
2017-Dec-11 01:59N 51°17' E 004°15'0 0.0
2017-Dec-11 01:29N 51°17' E 004°15'0 0.0
2017-Dec-11 00:59N 51°17' E 004°15'0 0.0
2017-Dec-11 00:29N 51°17' E 004°15'0 0.0
2017-Dec-10 23:59N 51°17' E 004°15'0 0.0
2017-Dec-10 23:29N 51°17' E 004°15'0 0.0
2017-Dec-10 22:59N 51°17' E 004°15'0 0.0
2017-Dec-10 22:29N 51°17' E 004°15'0 0.0
2017-Dec-10 21:56N 51°17' E 004°15'0 0.0
2017-Dec-10 21:29N 51°17' E 004°15'0 0.0
2017-Dec-10 20:59N 51°17' E 004°15'0 0.0
2017-Dec-10 20:29N 51°17' E 004°15'0 0.0
2017-Dec-10 19:59N 51°17' E 004°15'0 0.0
2017-Dec-10 19:29N 51°17' E 004°15'0 0.0
2017-Dec-10 18:59N 51°17' E 004°15'0 0.0
2017-Dec-10 18:29N 51°17' E 004°15'0 0.0
2017-Dec-10 17:59N 51°17' E 004°15'0 0.0
2017-Dec-10 17:29N 51°17' E 004°15'0 0.0
2017-Dec-10 16:59N 51°17' E 004°15'0 0.0
2017-Dec-10 16:29N 51°17' E 004°15'0 0.0
2017-Dec-10 15:59N 51°17' E 004°15'0 0.0
2017-Dec-10 15:26N 51°17' E 004°15'0 0.0
2017-Dec-10 14:59N 51°17' E 004°15'0 0.0
2017-Dec-10 14:26N 51°17' E 004°15'0 0.0
2017-Dec-10 13:59N 51°17' E 004°15'0 0.0
2017-Dec-10 13:29N 51°17' E 004°15'0 0.0
2017-Dec-10 12:59N 51°17' E 004°15'0 0.5
2017-Dec-10 12:30N 51°17' E 004°15'1 2.3
2017-Dec-10 12:00N 51°18' E 004°16'2 3.7
2017-Dec-10 11:30N 51°20' E 004°16'5 9.7
2017-Dec-10 11:00N 51°24' E 004°11'510.6
2017-Dec-10 10:30N 51°23' E 004°03'4 8.6
2017-Dec-10 10:00N 51°26' E 003°58'611.4
2017-Dec-10 09:30N 51°21' E 003°53'611.3
2017-Dec-10 09:00N 51°22' E 003°44'510.7
2017-Dec-10 08:30N 51°26' E 003°38'5 9.5
2017-Dec-10 08:00N 51°25' E 003°30'611.8
2017-Dec-10 07:30N 51°24' E 003°21'611.0
2017-Dec-10 07:00N 51°24' E 003°12'510.1
2017-Dec-10 06:30N 51°24' E 003°04'611.6
2017-Dec-10 06:00N 51°22' E 002°55'610.9
2017-Dec-10 05:26N 51°22' E 002°45'7 9.4
2017-Dec-10 04:40N 51°22' E 002°34'310.0
2017-Dec-10 04:24N 51°22' E 002°29'410.0
2017-Dec-10 04:00N 51°20' E 002°24'4 8.2
2017-Dec-10 03:30N 51°18' E 002°18'816.3
2017-Dec-10 03:00N 51°15' E 002°07'1019.3
2017-Dec-10 02:30N 51°10' E 001°53'1019.2
2017-Dec-10 02:00N 51°06' E 001°40'918.8
2017-Dec-10 01:31N 50°59' E 001°30'918.4
2017-Dec-10 01:00N 50°50' E 001°24'918.3
2017-Dec-10 00:30N 50°41' E 001°19'918.6
2017-Dec-09 23:59N 50°35' E 001°08'1018.4
2017-Dec-09 23:27N 50°30' E 000°54'818.8
2017-Dec-09 23:00N 50°27' E 000°42'1018.9
2017-Dec-09 22:28N 50°24' E 000°27'1019.8
2017-Dec-09 21:58N 50°22' E 000°11'919.7
2017-Dec-09 21:30N 50°20' W 000°02'1019.3
2017-Dec-09 20:58N 50°17' W 000°18'919.1
2017-Dec-09 20:30N 50°15' W 000°32'7717.4
2017-Dec-09 16:05N 49°55' W 002°27'117.8
2017-Dec-09 16:00N 49°54' W 002°30'917.7
2017-Dec-09 15:30N 49°52' W 002°43'816.8
2017-Dec-09 15:00N 49°50' W 002°55'917.1
2017-Dec-09 14:30N 49°47' W 003°08'1617.2
2017-Dec-09 13:34N 49°44' W 003°32'117.2
2017-Dec-09 13:30N 49°44' W 003°34'917.2
2017-Dec-09 12:57N 49°42' W 003°48'1617.0
2017-Dec-09 12:00N 49°36' W 004°12'15212.7 350 / 41018.410.8 9.0 4.513.0
2017-Dec-09 00:00N 49°30' W 008°06'14412.0 330 / 101027.910.8 10.0 5.712.0
2017-Dec-08 12:00N 49°42' W 011°48'10918.1 350 / 101031.827.0 11.0 6.814.0
2017-Dec-08 06:00N 49°42' W 014°36'12020.1 070 / 121031.710.8 10.0 5.714.0
2017-Dec-08 00:00N 49°42' W 017°42'10517.5 070 / 181031.310.8 11.0 1.514.0
2017-Dec-07 18:00N 49°36' W 020°24'33718.7 080 / 201029.010.8 11.0 4.312.0
2017-Dec-07 00:00N 48°48' W 028°54'   030 / 201022.4 9.0 6.914.1
Track history (hours):
 
Tides and Currents Weather Stations Pressure Air Temp Water Temp Dewpoint Dewpoint Depression Visibility Wind Speed Wind Dir Waves Ship Positions

Maersk Iowa

Owner: Maersk Line, Limited, Norfolk, VA. More information available from US FCC via Universal Licensing System and Coast Guard Vessel Documentation Center.

Last reported at 2017-Dec-16 01:00 UTC. Time now 2017-Dec-16 01:18 UTC.
Position N 50°02' W 002°31'.

Length 292 m; draft 11.8 m.

Type: Ship (hazmat cat A). MMSI: 367606000.

Date/timePositionNaut miles runAvg speedWind from/ knotsBaromVisibWave heightAir tempDewpointWater temp
2017-Dec-16 01:00N 50°02' W 002°31'8819.8
2017-Dec-15 20:35N 50°26' W 000°20'517.4
2017-Dec-15 20:17N 50°27' W 000°12'517.1
2017-Dec-15 20:01N 50°28' W 000°04'916.9
2017-Dec-15 19:28N 50°30' E 000°09'816.8
2017-Dec-15 19:01N 50°33' E 000°21'917.0
2017-Dec-15 18:31N 50°35' E 000°34'917.7
2017-Dec-15 18:01N 50°40' E 000°45'918.8
2017-Dec-15 17:31N 50°46' E 000°56'1520.0
2017-Dec-15 16:46N 50°57' E 001°13'620.6
2017-Dec-15 16:27N 51°01' E 001°21'920.3
2017-Dec-15 16:01N 51°06' E 001°33'1019.9
2017-Dec-15 15:30N 51°12' E 001°45'918.7
2017-Dec-15 15:01N 51°20' E 001°53'815.5
2017-Dec-15 14:31N 51°27' E 001°58'815.0
2017-Dec-15 14:01N 51°32' E 002°07'816.5
2017-Dec-15 13:30N 51°39' E 002°15'917.8
2017-Dec-15 13:00N 51°46' E 002°24'917.6
2017-Dec-15 12:29N 51°53' E 002°33'817.5
2017-Dec-15 12:00N 51°59' E 002°42'917.6
2017-Dec-15 11:30N 52°06' E 002°52'917.8
2017-Dec-15 10:59N 52°13' E 003°01'918.2
2017-Dec-15 10:29N 52°21' E 003°10'918.7
2017-Dec-15 10:01N 52°28' E 003°19'917.5
2017-Dec-15 09:30N 52°35' E 003°27'1019.5
2017-Dec-15 09:00N 52°42' E 003°38'1020.2
2017-Dec-15 08:30N 52°50' E 003°49'1020.3
2017-Dec-15 08:01N 52°57' E 004°00'1020.2
2017-Dec-15 07:30N 53°04' E 004°13'1019.7
2017-Dec-15 07:00N 53°11' E 004°25'1019.5
2017-Dec-15 06:29N 53°20' E 004°32'918.2
2017-Dec-15 06:00N 53°27' E 004°40'918.5
2017-Dec-15 05:31N 53°32' E 004°53'918.2
2017-Dec-15 05:00N 53°36' E 005°07'918.0
2017-Dec-15 04:29N 53°40' E 005°22'11311.3
2017-Dec-14 18:28N 53°35' E 008°32'0 0.0
2017-Dec-14 17:58N 53°35' E 008°32'0 0.0
2017-Dec-14 17:28N 53°35' E 008°32'0 0.0
2017-Dec-14 16:58N 53°35' E 008°32'0 0.0
2017-Dec-14 16:28N 53°35' E 008°32'0 0.0
2017-Dec-14 15:58N 53°35' E 008°32'0 0.0
2017-Dec-14 14:58N 53°35' E 008°32'0 0.0
2017-Dec-14 14:28N 53°35' E 008°32'0 0.0
2017-Dec-14 13:58N 53°35' E 008°32'0 0.0
2017-Dec-14 13:28N 53°35' E 008°32'0 0.0
2017-Dec-14 12:58N 53°35' E 008°32'0 0.0
2017-Dec-14 12:28N 53°35' E 008°32'0 0.0
2017-Dec-14 11:58N 53°35' E 008°32'0 0.0
2017-Dec-14 11:28N 53°35' E 008°32'0 0.0
2017-Dec-14 10:58N 53°35' E 008°32'0 0.0
2017-Dec-14 10:28N 53°35' E 008°32'0 0.0
2017-Dec-14 09:58N 53°35' E 008°32'0 0.0
2017-Dec-14 09:28N 53°35' E 008°32'0 0.0
2017-Dec-14 08:58N 53°35' E 008°32'0 0.0
2017-Dec-14 08:28N 53°35' E 008°32'0 0.0
2017-Dec-14 07:58N 53°35' E 008°32'0 0.0
2017-Dec-14 07:28N 53°35' E 008°32'0 0.0
2017-Dec-14 06:58N 53°35' E 008°32'0 0.0
2017-Dec-14 06:28N 53°35' E 008°32'0 0.0
2017-Dec-14 05:58N 53°35' E 008°32'0 0.0
2017-Dec-14 05:28N 53°35' E 008°32'0 0.0
2017-Dec-14 04:58N 53°35' E 008°32'0 0.0
2017-Dec-14 04:28N 53°35' E 008°32'0 0.0
2017-Dec-14 03:58N 53°35' E 008°32'0 0.0
2017-Dec-14 03:28N 53°35' E 008°32'0 0.0
2017-Dec-14 02:58N 53°35' E 008°32'0 0.0
2017-Dec-14 02:28N 53°35' E 008°32'0 0.0
2017-Dec-14 01:58N 53°35' E 008°32'0 0.0
2017-Dec-14 01:28N 53°35' E 008°32'0 0.0
2017-Dec-14 00:58N 53°35' E 008°32'0 0.0
2017-Dec-14 00:28N 53°35' E 008°32'2 3.5
2017-Dec-14 00:00N 53°36' E 008°30'5 9.2
2017-Dec-13 23:30N 53°39' E 008°24'611.2
2017-Dec-13 23:00N 53°43' E 008°18'713.1
2017-Dec-13 22:30N 53°47' E 008°09'611.0
2017-Dec-13 22:00N 53°51' E 008°02'4 8.4
2017-Dec-13 21:30N 53°52' E 007°55'99 8.4
2017-Dec-13 09:39N 53°32' E 005°11'2 8.0
2017-Dec-13 09:25N 53°32' E 005°08'3 8.1
2017-Dec-13 09:01N 53°30' E 005°03'4 8.1
2017-Dec-13 08:31N 53°28' E 004°57'4 8.5
2017-Dec-13 08:00N 53°26' E 004°51'5 8.6
2017-Dec-13 07:27N 53°24' E 004°44'4 9.2
2017-Dec-13 07:00N 53°21' E 004°40'16 9.5
2017-Dec-13 05:20N 53°07' E 004°27'3 9.5
2017-Dec-13 05:00N 53°04' E 004°25'5 9.5
2017-Dec-13 04:30N 52°60' E 004°21'5 9.5
2017-Dec-13 04:00N 52°56' E 004°17'5 9.4
2017-Dec-13 03:30N 52°51' E 004°14'5 9.6
2017-Dec-13 03:00N 52°47' E 004°10'5 9.8
2017-Dec-13 02:31N 52°43' E 004°05'5 9.9
2017-Dec-13 02:00N 52°39' E 004°01'611.4
2017-Dec-13 01:30N 52°34' E 003°57'612.4
2017-Dec-13 01:00N 52°28' E 003°53'5 9.5
2017-Dec-13 00:30N 52°23' E 003°52'5 9.2
2017-Dec-13 00:00N 52°19' E 003°52'4 9.0
2017-Dec-12 23:30N 52°14' E 003°54'5 9.1
2017-Dec-12 23:00N 52°10' E 003°54'5 9.4
2017-Dec-12 22:30N 52°05' E 003°54'5 9.1
2017-Dec-12 22:00N 52°01' E 003°58'510.8
2017-Dec-12 21:30N 51°58' E 004°05'3 6.0
2017-Dec-12 21:01N 51°58' E 003°60'1 1.8
2017-Dec-12 20:30N 51°57' E 004°00'0 0.0
2017-Dec-12 20:00N 51°57' E 004°00'0 0.0
2017-Dec-12 19:30N 51°57' E 004°00'0 0.0
2017-Dec-12 19:00N 51°57' E 004°00'0 0.0
2017-Dec-12 18:30N 51°57' E 004°00'0 0.0
2017-Dec-12 18:00N 51°57' E 004°00'0 0.0
2017-Dec-12 17:30N 51°57' E 004°00'0 0.0
2017-Dec-12 17:00N 51°57' E 004°00'0 0.0
2017-Dec-12 16:30N 51°57' E 004°00'0 0.0
2017-Dec-12 16:00N 51°57' E 004°00'0 0.0
2017-Dec-12 15:30N 51°57' E 004°00'0 0.0
2017-Dec-12 15:00N 51°57' E 004°00'0 0.0
2017-Dec-12 14:30N 51°57' E 004°00'0 0.0
2017-Dec-12 14:00N 51°57' E 004°00'0 0.0
2017-Dec-12 13:30N 51°57' E 004°00'0 0.0
2017-Dec-12 13:00N 51°57' E 004°00'0 0.0
2017-Dec-12 12:30N 51°57' E 004°00'0 0.0
2017-Dec-12 12:00N 51°57' E 004°00'0 0.0
2017-Dec-12 11:30N 51°57' E 004°00'0 0.0
2017-Dec-12 10:57N 51°57' E 004°00'0 0.0
2017-Dec-12 10:30N 51°57' E 004°00'0 0.0
2017-Dec-12 10:00N 51°57' E 004°00'0 0.0
2017-Dec-12 09:27N 51°57' E 004°00'0 0.0
2017-Dec-12 08:57N 51°57' E 004°00'0 0.0
2017-Dec-12 08:30N 51°57' E 004°00'0 0.0
2017-Dec-12 08:00N 51°57' E 004°00'0 0.0
2017-Dec-12 07:30N 51°57' E 004°00'0 0.0
2017-Dec-12 07:00N 51°57' E 004°00'0 0.0
2017-Dec-12 06:30N 51°57' E 004°00'0 0.0
2017-Dec-12 06:00N 51°57' E 004°00'0 0.0
2017-Dec-12 05:30N 51°57' E 004°00'0 0.0
2017-Dec-12 05:00N 51°57' E 004°00'0 0.0
2017-Dec-12 04:27N 51°57' E 004°00'0 0.0
2017-Dec-12 04:00N 51°57' E 004°00'0 0.0
2017-Dec-12 03:30N 51°57' E 004°00'0 0.0
2017-Dec-12 03:00N 51°57' E 004°00'0 0.0
2017-Dec-12 02:30N 51°57' E 004°00'1 2.0
2017-Dec-12 02:00N 51°58' E 004°00'3 5.4
2017-Dec-12 01:30N 51°58' E 004°04'2 4.2
2017-Dec-12 01:00N 51°59' E 004°02'510.2
2017-Dec-12 00:30N 51°59' E 003°54'2 4.9
2017-Dec-12 00:00N 51°60' E 003°50'4 7.8
2017-Dec-11 23:31N 51°59' E 003°44'510.5
2017-Dec-11 23:00N 51°57' E 003°36'5 6.4
2017-Dec-11 22:14N 51°55' E 003°29'0 0.1
2017-Dec-11 19:10N 51°54' E 003°29'0 0.0
2017-Dec-11 18:40N 51°54' E 003°29'0 0.1
2017-Dec-11 18:25N 51°54' E 003°29'0 0.1
2017-Dec-11 17:58N 51°54' E 003°29'0 0.0
2017-Dec-11 17:25N 51°54' E 003°29'0 0.0
2017-Dec-11 16:55N 51°54' E 003°29'0 0.0
2017-Dec-11 16:25N 51°54' E 003°29'0 0.1
2017-Dec-11 15:58N 51°54' E 003°29'0 0.0
2017-Dec-11 15:28N 51°54' E 003°29'0 0.0
2017-Dec-11 14:55N 51°54' E 003°29'0 0.1
2017-Dec-11 14:28N 51°54' E 003°29'0 0.8
2017-Dec-11 14:00N 51°54' E 003°28'9 8.3
2017-Dec-11 12:58N 51°49' E 003°17'1711.2
2017-Dec-11 11:26N 51°33' E 003°08'714.1
2017-Dec-11 10:57N 51°28' E 003°00'511.1
2017-Dec-11 10:30N 51°24' E 003°05'917.3
2017-Dec-11 10:01N 51°24' E 003°19'917.3
2017-Dec-11 09:30N 51°26' E 003°33'510.5
2017-Dec-11 09:01N 51°26' E 003°41'713.8
2017-Dec-11 08:31N 51°21' E 003°49'612.8
2017-Dec-11 08:00N 51°24' E 003°57'2112.3
2017-Dec-11 08:00N 51°24' E 004°00'2 3.3 170 / 15980.6 5.4 3.0 0.3 7.0
2017-Dec-11 07:30N 51°23' E 004°02'611.2
2017-Dec-11 07:00N 51°24' E 004°11'5 9.8
2017-Dec-11 06:31N 51°20' E 004°16'3 6.1
2017-Dec-11 06:00N 51°17' E 004°15'0 0.3
2017-Dec-11 05:31N 51°17' E 004°15'0 0.0
2017-Dec-11 04:59N 51°17' E 004°15'0 0.0
2017-Dec-11 04:29N 51°17' E 004°15'0 0.0
2017-Dec-11 03:59N 51°17' E 004°15'0 0.0
2017-Dec-11 03:29N 51°17' E 004°15'0 0.0
2017-Dec-11 02:59N 51°17' E 004°15'0 0.0
2017-Dec-11 02:29N 51°17' E 004°15'0 0.0
2017-Dec-11 01:59N 51°17' E 004°15'0 0.0
2017-Dec-11 01:29N 51°17' E 004°15'0 0.0
2017-Dec-11 00:59N 51°17' E 004°15'0 0.0
2017-Dec-11 00:29N 51°17' E 004°15'0 0.0
2017-Dec-10 23:59N 51°17' E 004°15'0 0.0
2017-Dec-10 23:29N 51°17' E 004°15'0 0.0
2017-Dec-10 22:59N 51°17' E 004°15'0 0.0
2017-Dec-10 22:29N 51°17' E 004°15'0 0.0
2017-Dec-10 21:56N 51°17' E 004°15'0 0.0
2017-Dec-10 21:29N 51°17' E 004°15'0 0.0
2017-Dec-10 20:59N 51°17' E 004°15'0 0.0
2017-Dec-10 20:29N 51°17' E 004°15'0 0.0
2017-Dec-10 19:59N 51°17' E 004°15'0 0.0
2017-Dec-10 19:29N 51°17' E 004°15'0 0.0
2017-Dec-10 18:59N 51°17' E 004°15'0 0.0
2017-Dec-10 18:29N 51°17' E 004°15'0 0.0
2017-Dec-10 17:59N 51°17' E 004°15'0 0.0
2017-Dec-10 17:29N 51°17' E 004°15'0 0.0
2017-Dec-10 16:59N 51°17' E 004°15'0 0.0
2017-Dec-10 16:29N 51°17' E 004°15'0 0.0
2017-Dec-10 15:59N 51°17' E 004°15'0 0.0
2017-Dec-10 15:26N 51°17' E 004°15'0 0.0
2017-Dec-10 14:59N 51°17' E 004°15'0 0.0
2017-Dec-10 14:26N 51°17' E 004°15'0 0.0
2017-Dec-10 13:59N 51°17' E 004°15'0 0.0
2017-Dec-10 13:29N 51°17' E 004°15'0 0.0
2017-Dec-10 12:59N 51°17' E 004°15'0 0.5
2017-Dec-10 12:30N 51°17' E 004°15'1 2.3
2017-Dec-10 12:00N 51°18' E 004°16'2 3.7
2017-Dec-10 11:30N 51°20' E 004°16'5 9.7
2017-Dec-10 11:00N 51°24' E 004°11'510.6
2017-Dec-10 10:30N 51°23' E 004°03'4 8.6
2017-Dec-10 10:00N 51°26' E 003°58'611.4
2017-Dec-10 09:30N 51°21' E 003°53'611.3
2017-Dec-10 09:00N 51°22' E 003°44'510.7
2017-Dec-10 08:30N 51°26' E 003°38'5 9.5
2017-Dec-10 08:00N 51°25' E 003°30'611.8
2017-Dec-10 07:30N 51°24' E 003°21'611.0
2017-Dec-10 07:00N 51°24' E 003°12'510.1
2017-Dec-10 06:30N 51°24' E 003°04'611.6
2017-Dec-10 06:00N 51°22' E 002°55'610.9
2017-Dec-10 05:26N 51°22' E 002°45'7 9.4
2017-Dec-10 04:40N 51°22' E 002°34'310.0
2017-Dec-10 04:24N 51°22' E 002°29'410.0
2017-Dec-10 04:00N 51°20' E 002°24'4 8.2
2017-Dec-10 03:30N 51°18' E 002°18'816.3
2017-Dec-10 03:00N 51°15' E 002°07'1019.3
2017-Dec-10 02:30N 51°10' E 001°53'1019.2
2017-Dec-10 02:00N 51°06' E 001°40'918.8
2017-Dec-10 01:31N 50°59' E 001°30'918.4
2017-Dec-10 01:00N 50°50' E 001°24'918.3
2017-Dec-10 00:30N 50°41' E 001°19'918.6
2017-Dec-09 23:59N 50°35' E 001°08'1018.4
2017-Dec-09 23:27N 50°30' E 000°54'818.8
2017-Dec-09 23:00N 50°27' E 000°42'1018.9
2017-Dec-09 22:28N 50°24' E 000°27'1019.8
2017-Dec-09 21:58N 50°22' E 000°11'919.7
2017-Dec-09 21:30N 50°20' W 000°02'1019.3
2017-Dec-09 20:58N 50°17' W 000°18'919.1
2017-Dec-09 20:30N 50°15' W 000°32'7717.4
2017-Dec-09 16:05N 49°55' W 002°27'117.8
2017-Dec-09 16:00N 49°54' W 002°30'917.7
2017-Dec-09 15:30N 49°52' W 002°43'816.8
2017-Dec-09 15:00N 49°50' W 002°55'917.1
2017-Dec-09 14:30N 49°47' W 003°08'1617.2
2017-Dec-09 13:34N 49°44' W 003°32'117.2
2017-Dec-09 13:30N 49°44' W 003°34'917.2
2017-Dec-09 12:57N 49°42' W 003°48'1617.0
2017-Dec-09 12:00N 49°36' W 004°12'15212.7 350 / 41018.410.8 9.0 4.513.0
2017-Dec-09 00:00N 49°30' W 008°06'14412.0 330 / 101027.910.8 10.0 5.712.0
2017-Dec-08 12:00N 49°42' W 011°48'10918.1 350 / 101031.827.0 11.0 6.814.0
2017-Dec-08 06:00N 49°42' W 014°36'12020.1 070 / 121031.710.8 10.0 5.714.0
2017-Dec-08 00:00N 49°42' W 017°42'10517.5 070 / 181031.310.8 11.0 1.514.0
2017-Dec-07 18:00N 49°36' W 020°24'33718.7 080 / 201029.010.8 11.0 4.312.0
2017-Dec-07 00:00N 48°48' W 028°54'   030 / 201022.4 9.0 6.914.1

Dump ship's entire track history